.
WxDataArchive / Data Records for 2006-06-19
2006-06-18 June 2006 2006-06-20

Data Records for Monday, 19 June 2006

Time	Temp	Chill	HIndex	Humid	Dewpt	 Wind 	HiWind	WindDir	Rain 	Barom 
-----	----	-----	------	-----	-----	------	------	-------	-----	----- 
00:00	66.8	66.8	66.8	92	64.4	0	1	248	0.00	29.869 
00:05	66.8	66.8	66.8	92	64.4	0	1	248	0.00	29.869 
00:10	66.8	66.8	66.8	92	64.4	0	0	---	0.00	29.869 
00:15	66.8	66.8	66.8	92	64.4	0	0	---	0.00	29.865 
00:20	66.6	66.6	66.6	92	64.2	0	0	---	0.00	29.865 
00:25	66.6	66.6	66.6	92	64.2	0	0	---	0.00	29.865 
00:30	66.6	66.6	66.6	92	64.2	0	0	---	0.01	29.866 
00:35	66.6	66.6	66.6	92	64.2	0	0	---	0.00	29.866 
00:40	66.6	66.6	66.6	92	64.2	0	1	248	0.00	29.866 
00:45	66.6	66.6	66.6	92	64.2	0	1	248	0.00	29.852 
00:50	66.6	66.6	66.6	92	64.2	0	0	---	0.00	29.852 
00:55	66.6	66.6	66.6	92	64.2	0	1	225	0.00	29.852 
01:00	66.6	66.6	66.6	92	64.2	0	0	---	0.00	29.853 
01:05	66.6	66.6	66.6	92	64.2	0	0	---	0.00	29.853 
01:10	66.4	66.4	66.4	92	64.0	0	0	---	0.00	29.853 
01:15	66.4	66.4	66.4	92	64.0	0	0	---	0.00	29.858 
01:20	66.4	66.4	66.4	92	64.0	0	0	---	0.00	29.858 
01:25	66.4	66.4	66.4	93	64.3	0	0	---	0.00	29.858 
01:30	66.4	66.4	66.4	93	64.3	0	0	---	0.00	29.863 
01:35	66.3	66.3	66.3	93	64.2	0	0	---	0.00	29.863 
01:40	66.3	66.3	66.3	93	64.2	0	1	225	0.00	29.863 
01:45	66.3	66.3	66.3	93	64.2	0	1	225	0.00	29.866 
01:50	66.4	66.4	66.4	93	64.3	0	1	225	0.00	29.866 
01:55	66.4	66.4	66.4	94	64.6	0	2	225	0.00	29.866 
02:00	66.4	66.4	66.4	94	64.6	0	1	225	0.00	29.861 
02:05	66.4	66.4	66.4	94	64.6	0	2	270	0.00	29.861 
02:10	66.4	66.4	66.4	94	64.6	0	2	270	0.00	29.861 
02:15	66.6	66.6	66.6	94	64.8	0	1	270	0.00	29.862 
02:20	66.4	66.4	66.4	93	64.3	0	2	270	0.00	29.862 
02:25	66.4	66.4	66.4	93	64.3	0	1	270	0.00	29.862 
02:30	66.3	66.3	66.3	93	64.2	0	1	270	0.00	29.859 
02:35	66.3	66.3	66.3	93	64.2	0	2	270	0.00	29.859 
02:40	66.3	66.3	66.3	93	64.2	0	2	270	0.00	29.859 
02:45	66.3	66.3	66.3	93	64.2	1	2	270	0.00	29.856 
02:50	66.3	66.3	66.3	93	64.2	0	2	270	0.00	29.856 
02:55	66.3	66.3	66.3	93	64.2	1	2	270	0.00	29.856 
03:00	66.1	66.1	66.1	93	64.0	0	2	270	0.00	29.857 
03:05	66.1	66.1	66.1	93	64.0	0	2	270	0.00	29.857 
03:10	66.1	66.1	66.1	93	64.0	1	3	270	0.00	29.857 
03:15	66.0	66.0	66.0	93	63.9	0	2	270	0.00	29.852 
03:20	66.0	66.0	66.0	93	63.9	1	3	270	0.00	29.852 
03:25	65.8	65.8	65.8	93	63.7	1	3	270	0.00	29.852 
03:30	65.8	65.8	65.8	93	63.7	1	2	270	0.00	29.849 
03:35	65.6	65.6	65.6	93	63.5	0	2	270	0.00	29.849 
03:40	65.5	65.5	65.5	93	63.4	0	1	270	0.00	29.849 
03:45	65.3	65.3	65.3	93	63.2	0	1	270	0.00	29.850 
03:50	65.3	65.3	65.3	93	63.2	0	1	270	0.00	29.850 
03:55	65.2	65.2	65.2	93	63.1	0	1	270	0.00	29.850 
04:00	65.2	65.2	65.2	93	63.1	0	1	270	0.00	29.852 
04:05	65.0	65.0	65.0	93	62.9	0	1	270	0.00	29.852 
04:10	65.0	65.0	65.0	94	63.2	0	1	270	0.00	29.852 
04:15	65.0	65.0	65.0	94	63.2	0	1	270	0.00	29.855 
04:20	65.2	65.2	65.2	94	63.4	1	3	270	0.00	29.855 
04:25	65.2	65.2	65.2	94	63.4	1	2	270	0.00	29.855 
04:30	65.3	65.3	65.3	94	63.5	0	2	270	0.00	29.853 
04:35	65.3	65.3	65.3	94	63.5	1	2	270	0.00	29.853 
04:40	65.3	65.3	65.3	94	63.5	1	3	248	0.00	29.853 
04:45	65.2	65.2	65.2	94	63.4	0	1	248	0.00	29.854 
04:50	65.2	65.2	65.2	94	63.4	1	3	248	0.00	29.854 
04:55	65.2	65.2	65.2	94	63.4	0	2	248	0.00	29.854 
05:00	65.2	65.2	65.2	94	63.4	0	1	248	0.00	29.854 
05:05	65.0	65.0	65.0	94	63.2	0	1	248	0.00	29.854 
05:10	65.0	65.0	65.0	94	63.2	0	1	248	0.00	29.854 
05:15	64.8	64.8	64.8	94	63.0	0	0	---	0.00	29.850 
05:20	64.7	64.7	64.7	94	62.9	0	0	---	0.00	29.850 
05:25	64.5	64.5	64.5	94	62.7	0	2	248	0.00	29.850 
05:30	64.5	64.5	64.5	94	62.7	0	1	248	0.00	29.851 
05:35	64.5	64.5	64.5	94	62.7	0	1	248	0.00	29.851 
05:40	64.5	64.5	64.5	94	62.7	0	1	248	0.00	29.851 
05:45	64.3	64.3	64.3	94	62.5	0	1	248	0.00	29.855 
05:50	64.3	64.3	64.3	94	62.5	0	1	248	0.00	29.855 
05:55	64.2	64.2	64.2	94	62.4	0	1	248	0.00	29.855 
06:00	64.2	64.2	64.2	94	62.4	0	2	248	0.00	29.864 
06:05	64.2	64.2	64.2	94	62.4	0	1	248	0.00	29.864 
06:10	64.2	64.2	64.2	94	62.4	0	2	248	0.00	29.864 
06:15	64.2	64.2	64.2	94	62.4	0	1	248	0.00	29.867 
06:20	64.0	64.0	64.0	94	62.2	0	2	248	0.00	29.867 
06:25	64.0	64.0	64.0	94	62.2	0	1	248	0.00	29.867 
06:30	64.0	64.0	64.0	94	62.2	0	2	248	0.00	29.868 
06:35	64.0	64.0	64.0	94	62.2	0	2	248	0.00	29.868 
06:40	64.0	64.0	64.0	94	62.2	0	2	248	0.00	29.868 
06:45	64.2	64.2	64.2	94	62.4	1	2	248	0.00	29.870 
06:50	64.2	64.2	64.2	94	62.4	0	2	248	0.00	29.870 
06:55	64.3	64.3	64.3	94	62.5	0	2	248	0.00	29.870 
07:00	64.5	64.5	64.5	94	62.7	1	2	248	0.00	29.873 
07:05	64.5	64.5	64.5	94	62.7	1	2	248	0.00	29.873 
07:10	64.8	64.8	64.8	94	63.0	1	3	248	0.00	29.873 
07:15	65.0	65.0	65.0	94	63.2	1	3	248	0.00	29.874 
07:20	65.2	65.2	65.2	93	63.1	0	2	248	0.00	29.874 
07:25	65.5	65.5	65.5	93	63.4	1	2	248	0.00	29.874 
07:30	65.6	65.6	65.6	93	63.5	1	3	248	0.00	29.871 
07:35	65.8	65.8	65.8	92	63.4	1	3	248	0.00	29.871 
07:40	66.1	66.1	66.1	92	63.7	1	3	248	0.00	29.871 
07:45	66.3	66.3	66.3	92	63.9	1	3	270	0.00	29.884 
07:50	66.4	66.4	66.4	91	63.7	2	5	248	0.00	29.884 
07:55	66.4	66.4	66.4	91	63.7	2	4	270	0.00	29.884 
08:00	66.6	66.6	66.6	92	64.2	2	4	248	0.00	29.883 
08:05	66.6	66.6	66.6	91	63.9	1	3	270	0.00	29.883 
08:10	66.6	66.6	66.6	91	63.9	1	3	248	0.00	29.883 
08:15	66.6	66.6	66.6	91	63.9	1	3	248	0.00	29.882 
08:20	66.6	66.6	66.6	91	63.9	2	4	270	0.00	29.882 
08:25	66.6	66.6	66.6	91	63.9	1	4	270	0.00	29.882 
08:30	66.6	66.6	66.6	91	63.9	2	3	248	0.00	29.893 
08:35	66.6	66.6	66.6	91	63.9	2	7	270	0.00	29.893 
08:40	66.6	66.6	66.6	91	63.9	1	3	292	0.00	29.893 
08:45	66.4	66.4	66.4	92	64.0	1	3	248	0.00	29.898 
08:50	66.4	66.4	66.4	92	64.0	2	4	248	0.00	29.898 
08:55	66.4	66.4	66.4	92	64.0	2	4	270	0.00	29.898 
09:00	66.6	66.6	66.6	92	64.2	2	4	270	0.00	29.901 
09:05	66.8	66.8	66.8	92	64.4	1	3	270	0.00	29.901 
09:10	66.9	66.9	66.9	92	64.5	1	3	248	0.00	29.901 
09:15	66.9	66.9	66.9	92	64.5	1	4	270	0.00	29.902 
09:20	67.3	67.3	67.3	92	64.9	2	4	248	0.00	29.902 
09:25	67.6	67.6	67.6	91	64.9	1	3	248	0.00	29.902 
09:30	67.8	67.8	67.8	90	64.8	2	4	248	0.00	29.900 
09:35	68.1	68.1	68.1	90	65.0	2	4	248	0.00	29.900 
09:40	68.3	68.3	68.3	89	64.9	2	3	270	0.00	29.900 
09:45	68.6	68.6	68.6	89	65.2	1	3	248	0.00	29.905 
09:50	68.9	68.9	68.9	88	65.2	2	4	248	0.00	29.905 
09:55	69.3	69.3	69.3	88	65.6	1	4	248	0.00	29.905 
10:00	69.6	69.6	69.6	87	65.6	1	3	248	0.00	29.899 
10:05	69.9	69.9	69.9	86	65.5	1	3	248	0.00	29.899 
10:10	70.3	70.3	70.3	86	65.9	1	3	270	0.00	29.899 
10:15	70.6	70.6	70.6	85	65.9	1	3	270	0.00	29.902 
10:20	70.8	70.8	70.8	84	65.7	2	4	248	0.00	29.902 
10:25	70.9	70.9	70.9	84	65.8	1	3	270	0.00	29.902 
10:30	71.3	71.3	71.3	84	66.2	2	4	292	0.00	29.902 
10:35	71.6	71.6	71.6	82	65.8	2	5	248	0.00	29.902 
10:40	72.0	72.0	72.0	82	66.2	2	4	248	0.00	29.902 
10:45	72.3	72.3	72.3	82	66.5	2	4	248	0.00	29.898 
10:50	72.7	72.7	72.7	81	66.5	2	5	248	0.00	29.898 
10:55	72.8	72.8	72.8	80	66.3	2	3	248	0.00	29.898 
11:00	72.8	72.8	72.8	79	65.9	2	5	270	0.00	29.900 
11:05	73.7	73.7	73.7	78	66.4	2	6	270	0.00	29.900 
11:10	73.7	73.7	73.7	77	66.0	3	6	248	0.00	29.900 
11:15	74.0	74.0	74.0	78	66.7	2	5	248	0.00	29.898 
11:20	74.6	74.6	74.6	76	66.5	3	7	270	0.00	29.898 
11:25	74.9	74.9	74.9	75	66.4	2	7	248	0.00	29.898 
11:30	75.6	75.6	76.8	76	67.5	2	5	270	0.00	29.895 
11:35	76.0	76.0	77.4	75	67.5	2	5	248	0.00	29.895 
11:40	75.6	75.6	77.0	74	66.7	2	5	248	0.00	29.895 
11:45	75.6	75.6	76.9	75	67.1	2	5	248	0.00	29.893 
11:50	76.1	76.1	77.5	74	67.2	2	6	248	0.00	29.893 
11:55	76.7	76.7	78.3	74	67.8	2	5	248	0.00	29.893 
12:00	77.2	77.2	79.0	74	68.3	1	4	315	0.00	29.887 
12:05	77.7	77.7	79.7	72	67.9	2	6	248	0.00	29.887 
12:10	77.9	77.9	80.0	73	68.5	2	5	248	0.00	29.887 
12:15	77.7	77.7	79.7	71	67.5	2	6	270	0.00	29.886 
12:20	77.2	77.2	79.0	72	67.5	3	6	248	0.00	29.886 
12:25	76.7	76.7	78.3	73	67.4	3	6	270	0.00	29.886 
12:30	76.5	76.5	78.1	73	67.2	3	7	248	0.00	29.893 
12:35	76.7	76.7	78.3	73	67.4	3	7	248	0.00	29.893 
12:40	77.0	77.0	78.7	75	68.5	3	7	248	0.00	29.893 
12:45	77.2	77.2	79.0	71	67.0	4	10	248	0.00	29.890 
12:50	77.2	77.2	79.0	72	67.5	2	5	248	0.00	29.890 
12:55	77.6	77.6	79.5	73	68.2	3	6	248	0.00	29.890 
13:00	77.9	77.9	79.9	72	68.1	3	6	248	0.00	29.885 
13:05	78.3	78.3	80.4	70	67.7	4	11	270	0.00	29.885 
13:10	78.6	78.6	80.9	71	68.4	2	5	270	0.00	29.885 
13:15	79.6	79.6	82.2	69	68.5	2	5	248	0.00	29.880 
13:20	79.8	79.8	82.2	66	67.4	2	5	270	0.00	29.880 
13:25	79.8	79.8	82.4	68	68.3	3	7	270	0.00	29.880 
13:30	80.1	80.1	82.7	67	68.1	2	4	248	0.00	29.868 
13:35	80.7	80.7	83.4	65	67.8	2	4	248	0.00	29.868 
13:40	81.2	81.2	84.3	66	68.7	2	6	270	0.00	29.868 
13:45	82.0	82.0	84.8	62	67.7	2	4	270	0.00	29.860 
13:50	82.2	82.2	85.1	62	67.9	2	9	248	0.00	29.860 
13:55	82.0	82.0	84.2	59	66.2	3	7	270	0.00	29.860 
14:00	81.8	81.8	84.1	60	66.5	3	8	270	0.00	29.857 
14:05	81.8	81.8	84.1	60	66.5	3	6	248	0.00	29.857 
14:10	82.2	82.2	84.9	61	67.4	3	5	270	0.00	29.857 
14:15	82.0	82.0	83.7	56	64.7	3	6	270	0.00	29.860 
14:20	82.6	82.6	84.5	56	65.3	3	7	248	0.00	29.860 
14:25	83.0	83.0	84.7	54	64.6	3	6	248	0.00	29.860 
14:30	83.2	83.2	85.3	56	65.8	3	8	248	0.00	29.856 
14:35	83.0	83.0	84.7	54	64.6	3	7	248	0.00	29.856 
14:40	82.8	82.8	84.8	56	65.5	2	5	248	0.00	29.856 
14:45	83.2	83.2	84.9	54	64.8	3	6	270	0.00	29.852 
14:50	83.4	83.4	84.8	52	63.9	3	5	270	0.00	29.852 
14:55	83.4	83.4	85.4	55	65.5	2	6	248	0.00	29.852 
15:00	83.4	83.4	85.0	53	64.4	3	4	270	0.00	29.846 
15:05	84.0	84.0	85.8	53	65.0	3	9	270	0.00	29.846 
15:10	83.2	83.2	84.9	54	64.8	4	7	270	0.00	29.846 
15:15	82.8	82.8	84.6	55	65.0	3	9	248	0.00	29.845 
15:20	82.8	82.8	84.0	52	63.3	3	6	270	0.00	29.845 
15:25	83.4	83.4	84.8	52	63.9	3	10	270	0.00	29.845 
15:30	84.0	84.0	86.0	54	65.5	3	5	248	0.00	29.842 
15:35	84.1	84.1	86.2	54	65.6	4	7	270	0.00	29.842 
15:40	84.3	84.3	86.0	52	64.7	3	7	270	0.00	29.842 
15:45	84.7	84.7	87.0	54	66.2	3	5	248	0.00	29.839 
15:50	84.9	84.9	86.6	51	64.7	3	6	270	0.00	29.839 
15:55	84.5	84.5	84.7	45	60.8	2	5	292	0.00	29.839 
16:00	84.1	84.1	84.8	48	62.3	2	5	248	0.00	29.837 
16:05	84.7	84.7	86.3	51	64.5	3	8	270	0.00	29.837 
16:10	84.9	84.9	86.8	52	65.3	3	6	270	0.00	29.837 
16:15	84.9	84.9	86.1	49	63.6	4	9	270	0.00	29.830 
16:20	85.1	85.1	86.1	48	63.2	3	7	248	0.00	29.830 
16:25	85.1	85.1	84.6	41	58.7	4	11	270	0.00	29.830 
16:30	84.9	84.9	85.2	45	61.2	3	6	270	0.00	29.827 
16:35	84.7	84.7	85.2	46	61.6	3	5	270	0.00	29.827 
16:40	84.9	84.9	85.4	46	61.8	2	7	292	0.00	29.827 
16:45	84.7	84.7	85.6	48	62.8	2	5	248	0.00	29.826 
16:50	83.8	83.8	83.7	44	59.5	4	11	270	0.00	29.826 
16:55	83.2	83.2	83.1	44	59.0	3	6	248	0.00	29.826 
17:00	82.8	82.8	83.0	46	59.9	3	4	270	0.00	29.828 
17:05	82.6	82.6	82.8	46	59.7	3	9	270	0.00	29.828 
17:10	83.0	83.0	83.4	47	60.7	3	5	248	0.00	29.828 
17:15	84.1	84.1	84.3	45	60.4	3	6	248	0.00	29.822 
17:20	84.7	84.7	84.7	44	60.3	2	4	270	0.00	29.822 
17:25	84.5	84.5	84.7	45	60.8	3	6	270	0.00	29.822 
17:30	84.0	84.0	84.3	46	61.0	2	4	248	0.00	29.813 
17:35	84.0	84.0	84.0	44	59.7	3	5	270	0.00	29.813 
17:40	84.7	84.7	84.4	42	59.0	2	6	248	0.00	29.813 
17:45	84.5	84.5	84.0	41	58.2	3	6	270	0.00	29.800 
17:50	84.7	84.7	84.4	42	59.0	4	10	270	0.00	29.800 
17:55	84.5	84.5	84.0	41	58.2	4	7	270	0.00	29.800 
18:00	84.7	84.7	84.6	43	59.7	3	7	248	0.00	29.800 
18:05	84.7	84.7	84.6	43	59.7	2	5	270	0.00	29.800 
18:10	84.3	84.3	84.5	45	60.6	2	4	248	0.00	29.800 
18:15	83.6	83.6	83.5	44	59.3	3	6	248	0.00	29.800 
18:20	83.2	83.2	83.6	47	60.8	2	5	225	0.00	29.800 
18:25	82.8	82.8	83.2	47	60.5	3	8	248	0.00	29.800 
18:30	82.6	82.6	83.0	47	60.3	2	5	270	0.00	29.798 
18:35	81.6	81.6	81.2	41	55.6	3	7	338	0.00	29.798 
18:40	81.1	81.1	81.0	43	56.5	2	3	315	0.00	29.798 
18:45	80.5	80.5	80.6	44	56.6	2	5	292	0.00	29.801 
18:50	79.8	79.8	80.2	45	56.5	1	3	315	0.00	29.801 
18:55	79.4	79.4	79.9	45	56.2	1	3	315	0.00	29.801 
19:00	79.4	79.4	79.8	44	55.6	1	2	315	0.00	29.800 
19:05	79.6	79.6	80.0	45	56.4	1	3	292	0.00	29.800 
19:10	79.6	79.6	80.0	45	56.4	1	3	292	0.00	29.800 
19:15	79.8	79.8	80.2	45	56.5	2	5	248	0.00	29.796 
19:20	79.6	79.6	80.0	44	55.7	1	4	248	0.00	29.796 
19:25	79.4	79.4	79.9	45	56.2	1	3	248	0.00	29.796 
19:30	79.2	79.2	79.8	45	56.0	1	3	248	0.00	29.813 
19:35	79.0	79.0	79.8	47	57.0	0	1	270	0.00	29.813 
19:40	78.8	78.8	79.4	44	55.0	0	3	270	0.00	29.813 
19:45	78.6	78.6	79.4	45	55.5	1	4	270	0.00	29.820 
19:50	78.3	78.3	79.3	47	56.4	0	1	270	0.00	29.820 
19:55	77.9	77.9	79.0	47	56.0	0	1	270	0.00	29.820 
20:00	77.7	77.7	79.0	49	57.0	0	2	270	0.00	29.815 
20:05	77.6	77.6	79.0	50	57.5	0	3	292	0.00	29.815 
20:10	77.4	77.4	78.9	51	57.8	0	2	292	0.00	29.815 
20:15	77.6	77.6	79.0	51	58.0	0	2	292	0.00	29.819 
20:20	77.7	77.7	79.1	52	58.6	0	1	292	0.00	29.819 
20:25	77.9	77.9	79.2	50	57.7	1	2	292	0.00	29.819 
20:30	78.3	78.3	79.4	50	58.1	1	4	270	0.00	29.831 
20:35	78.3	78.3	79.4	50	58.1	1	5	248	0.00	29.831 
20:40	78.3	78.3	79.4	50	58.1	1	2	248	0.00	29.831 
20:45	78.1	78.1	79.3	50	57.9	1	2	248	0.00	29.834 
20:50	78.1	78.1	79.3	50	57.9	0	1	248	0.00	29.834 
20:55	77.7	77.7	79.1	51	58.1	0	1	248	0.00	29.834 
21:00	77.4	77.4	78.9	52	58.4	0	1	248	0.00	29.844 
21:05	77.0	77.0	78.6	50	56.9	0	3	45	0.00	29.844 
21:10	77.0	77.0	78.7	53	58.5	0	1	45	0.00	29.844 
21:15	77.0	77.0	78.7	52	58.0	1	4	248	0.00	29.850 
21:20	77.0	77.0	78.7	53	58.5	0	0	---	0.00	29.850 
21:25	76.8	76.8	78.6	54	58.9	0	1	248	0.00	29.850 
21:30	76.7	76.7	78.5	53	58.3	1	2	315	0.00	29.862 
21:35	76.7	76.7	78.5	53	58.3	0	2	315	0.00	29.862 
21:40	76.7	76.7	78.5	55	59.3	0	1	315	0.00	29.862 
21:45	76.5	76.5	78.4	53	58.1	0	1	315	0.00	29.871 
21:50	76.1	76.1	78.1	54	58.2	0	1	315	0.00	29.871 
21:55	76.0	76.0	78.1	53	57.6	0	1	315	0.00	29.871 
22:00	76.0	76.0	78.1	51	56.5	0	1	315	0.00	29.879 
22:05	76.0	76.0	78.1	52	57.1	0	1	315	0.00	29.879 
22:10	76.0	76.0	78.1	52	57.1	0	1	315	0.00	29.879 
22:15	75.8	75.8	78.0	53	57.4	0	3	248	0.00	29.885 
22:20	75.8	75.8	78.0	52	56.9	0	2	248	0.00	29.885 
22:25	75.8	75.8	78.0	54	57.9	0	2	248	0.00	29.885 
22:30	75.4	75.4	77.8	54	57.6	0	0	---	0.00	29.887 
22:35	75.1	75.1	77.6	55	57.8	0	0	---	0.00	29.887 
22:40	74.6	74.6	74.6	57	58.3	0	1	248	0.00	29.887 
22:45	74.0	74.0	74.0	58	58.3	0	0	---	0.00	29.894 
22:50	73.5	73.5	73.5	59	58.3	0	0	---	0.00	29.894 
22:55	73.0	73.0	73.0	60	58.3	0	0	---	0.00	29.894 
23:00	72.5	72.5	72.5	61	58.3	0	0	---	0.00	29.894 
23:05	72.1	72.1	72.1	62	58.3	0	0	---	0.00	29.894 
23:10	71.6	71.6	71.6	63	58.3	0	0	---	0.00	29.894 
23:15	71.3	71.3	71.3	64	58.5	0	0	---	0.00	29.895 
23:20	70.9	70.9	70.9	64	58.1	0	0	---	0.00	29.895 
23:25	70.6	70.6	70.6	65	58.2	0	0	---	0.00	29.895 
23:30	70.3	70.3	70.3	65	58.0	0	0	---	0.00	29.897 
23:35	69.9	69.9	69.9	67	58.4	0	0	---	0.00	29.897 
23:40	69.4	69.4	69.4	68	58.4	0	0	---	0.00	29.897 
23:45	69.1	69.1	69.1	69	58.5	0	0	---	0.00	29.898 
23:50	68.8	68.8	68.8	72	59.4	0	0	---	0.00	29.898 
23:55	68.3	68.3	68.3	73	59.3	0	0	---	0.00	29.898 

CoCoRaHS
IN-AL-39
A2 Web Hosting
Creative Commons License
GoDaddy
Look for:

loaded 2017-10-18 07:26:32 • last modified 2010-11-18 10:43:29
Privacy PolicyDisclaimer
• wx.awcolley.com is powered by PmWiki v.2002016 •
• all content (unless otherwise noted) © 2017 A W Colley